FFT4891 KMCO-TNCM
Flight info
| Callsign | FFT4891 |
|---|---|
| Flight time | N/A |
| Altitude | 39000 |
| Route | DDANY3 JIPOD DCT VENDS Y185 COUKY DCT FIPEK Y355 SLUGO ULUBA1 |
| Aircraft | A20N/M-SDE2E3FGHIRWXY/LB1 |
Departure
| Time | 2026-04-22 17:06 |
|---|---|
| Airport | Orlando International Airport (KMCO) |
Arrival
| Time | N/A |
|---|---|
| Airport | Princess Juliana International Airport (TNCM) |
| Time | Latitude | Longitude | Altitude | Speed | Heading |
|---|---|---|---|---|---|
| 2026-04-22 16:55 | 28.43623 | -81.31470 | 97 ft | 0 kts | 232° |
| 2026-04-22 16:58 | 28.43623 | -81.31469 | 97 ft | 1 kts | 232° |
| 2026-04-22 16:58 | 28.43638 | -81.31448 | 96 ft | 4 kts | 234° |
| 2026-04-22 16:59 | 28.43653 | -81.31423 | 96 ft | 4 kts | 234° |
| 2026-04-22 16:59 | 28.43668 | -81.31398 | 97 ft | 4 kts | 241° |
| 2026-04-22 16:59 | 28.43680 | -81.31370 | 98 ft | 5 kts | 255° |
| 2026-04-22 16:59 | 28.43683 | -81.31347 | 99 ft | 0 kts | 269° |
| 2026-04-22 17:02 | 28.43686 | -81.31388 | 100 ft | 12 kts | 279° |
| 2026-04-22 17:02 | 28.43705 | -81.31534 | 102 ft | 25 kts | 269° |
| 2026-04-22 17:02 | 28.43780 | -81.31650 | 107 ft | 22 kts | 326° |
| 2026-04-22 17:02 | 28.43846 | -81.31789 | 103 ft | 21 kts | 271° |
| 2026-04-22 17:03 | 28.43911 | -81.31850 | 102 ft | 15 kts | 350° |
| 2026-04-22 17:03 | 28.44057 | -81.31896 | 102 ft | 28 kts | 353° |
| 2026-04-22 17:03 | 28.44292 | -81.31899 | 102 ft | 39 kts | 1° |
| 2026-04-22 17:03 | 28.44557 | -81.31905 | 101 ft | 32 kts | 358° |
| 2026-04-22 17:04 | 28.44718 | -81.31977 | 102 ft | 25 kts | 277° |
| 2026-04-22 17:04 | 28.44713 | -81.32105 | 101 ft | 1 kts | 268° |
| 2026-04-22 17:04 | 28.44709 | -81.32176 | 101 ft | 16 kts | 258° |
| 2026-04-22 17:04 | 28.44635 | -81.32236 | 102 ft | 13 kts | 206° |
| 2026-04-22 17:05 | 28.44663 | -81.32240 | 102 ft | 10 kts | 103° |
| 2026-04-22 17:05 | 28.44610 | -81.32226 | 103 ft | 2 kts | 180° |
| 2026-04-22 17:05 | 28.44608 | -81.32226 | 103 ft | 0 kts | 180° |
| 2026-04-22 17:05 | 28.44596 | -81.32226 | 101 ft | 18 kts | 180° |
| 2026-04-22 17:06 | 28.44140 | -81.32224 | 105 ft | 111 kts | 179° |
| 2026-04-22 17:06 | 28.43110 | -81.32202 | 283 ft | 176 kts | 174° |
| 2026-04-22 17:06 | 28.41762 | -81.32178 | 831 ft | 207 kts | 175° |
| 2026-04-22 17:06 | 28.40312 | -81.32100 | 1969 ft | 213 kts | 168° |
| 2026-04-22 17:07 | 28.38845 | -81.31532 | 2759 ft | 235 kts | 142° |
| 2026-04-22 17:07 | 28.37611 | -81.30272 | 3655 ft | 242 kts | 132° |
| 2026-04-22 17:07 | 28.36462 | -81.28850 | 4646 ft | 247 kts | 130° |
| 2026-04-22 17:07 | 28.35306 | -81.27394 | 5704 ft | 250 kts | 129° |
| 2026-04-22 17:08 | 28.34130 | -81.25919 | 6774 ft | 255 kts | 130° |
| 2026-04-22 17:08 | 28.32916 | -81.24409 | 7715 ft | 264 kts | 131° |
| 2026-04-22 17:08 | 28.31649 | -81.22843 | 8649 ft | 274 kts | 132° |
| 2026-04-22 17:08 | 28.30338 | -81.21234 | 9617 ft | 283 kts | 133° |
| 2026-04-22 17:09 | 28.28971 | -81.19559 | 10446 ft | 297 kts | 133° |
| 2026-04-22 17:09 | 28.27512 | -81.17774 | 10937 ft | 319 kts | 133° |
| 2026-04-22 17:09 | 28.26500 | -81.16537 | 11437 ft | 326 kts | 133° |
| 2026-04-22 17:09 | 28.24405 | -81.13975 | 12636 ft | 336 kts | 134° |
| 2026-04-22 17:10 | 28.22799 | -81.12013 | 13537 ft | 343 kts | 135° |
| 2026-04-22 17:10 | 28.21156 | -81.10007 | 14314 ft | 351 kts | 135° |
| 2026-04-22 17:10 | 28.19483 | -81.07964 | 15117 ft | 355 kts | 135° |
| 2026-04-22 17:10 | 28.17801 | -81.05909 | 16037 ft | 357 kts | 135° |
| 2026-04-22 17:11 | 28.16100 | -81.03835 | 16876 ft | 361 kts | 135° |
| 2026-04-22 17:11 | 28.14378 | -81.01736 | 17570 ft | 365 kts | 136° |
| 2026-04-22 17:11 | 28.12655 | -80.99602 | 17904 ft | 369 kts | 133° |
| 2026-04-22 17:11 | 28.11216 | -80.97170 | 18000 ft | 376 kts | 119° |
| 2026-04-22 17:12 | 28.10379 | -80.94361 | 18008 ft | 380 kts | 104° |
| 2026-04-22 17:12 | 28.09999 | -80.91388 | 18011 ft | 382 kts | 96° |
| 2026-04-22 17:12 | 28.09876 | -80.88380 | 18010 ft | 383 kts | 92° |
| 2026-04-22 17:12 | 28.09879 | -80.85356 | 18006 ft | 384 kts | 90° |
| 2026-04-22 17:13 | 28.09924 | -80.82336 | 18006 ft | 384 kts | 90° |
| 2026-04-22 17:13 | 28.09966 | -80.79309 | 18012 ft | 384 kts | 90° |
| 2026-04-22 17:13 | 28.09987 | -80.76289 | 18010 ft | 384 kts | 91° |
| 2026-04-22 17:13 | 28.09986 | -80.73267 | 18007 ft | 384 kts | 91° |
| 2026-04-22 17:14 | 28.09968 | -80.70285 | 18012 ft | 384 kts | 92° |
| 2026-04-22 17:14 | 28.09938 | -80.67268 | 18014 ft | 383 kts | 92° |
| 2026-04-22 17:14 | 28.09903 | -80.64249 | 18016 ft | 383 kts | 92° |
| 2026-04-22 17:14 | 28.09864 | -80.61227 | 18009 ft | 384 kts | 92° |
| 2026-04-22 17:15 | 28.09851 | -80.60207 | 18019 ft | 384 kts | 92° |
| 2026-04-22 17:15 | 28.09787 | -80.55186 | 18012 ft | 384 kts | 92° |
| 2026-04-22 17:15 | 28.09750 | -80.52165 | 18013 ft | 384 kts | 92° |
| 2026-04-22 17:15 | 28.09712 | -80.49144 | 18010 ft | 383 kts | 92° |
| 2026-04-22 17:16 | 28.09674 | -80.46128 | 18014 ft | 383 kts | 92° |
| 2026-04-22 17:16 | 28.09636 | -80.43124 | 18014 ft | 383 kts | 92° |
| 2026-04-22 17:16 | 28.09597 | -80.40094 | 18014 ft | 383 kts | 92° |
| 2026-04-22 17:16 | 28.09558 | -80.37077 | 18025 ft | 383 kts | 92° |
| 2026-04-22 17:17 | 28.09437 | -80.34049 | 18388 ft | 387 kts | 98° |
| 2026-04-22 17:17 | 28.08921 | -80.31051 | 19109 ft | 389 kts | 107° |
| 2026-04-22 17:17 | 28.08149 | -80.28096 | 19782 ft | 394 kts | 109° |
| 2026-04-22 17:17 | 28.07252 | -80.25141 | 20421 ft | 400 kts | 111° |
| 2026-04-22 17:18 | 28.06274 | -80.22169 | 21037 ft | 406 kts | 112° |
| 2026-04-22 17:18 | 28.05250 | -80.19169 | 21647 ft | 411 kts | 112° |
| 2026-04-22 17:18 | 28.04203 | -80.16130 | 22256 ft | 417 kts | 112° |
| 2026-04-22 17:18 | 28.03146 | -80.13052 | 22888 ft | 422 kts | 112° |
| 2026-04-22 17:19 | 28.01011 | -80.06774 | 24046 ft | 433 kts | 111° |
| 2026-04-22 17:19 | 27.98839 | -80.00334 | 25035 ft | 442 kts | 111° |
| 2026-04-22 17:20 | 27.96628 | -79.93771 | 26013 ft | 451 kts | 112° |
| 2026-04-22 17:20 | 27.94372 | -79.87088 | 26964 ft | 459 kts | 112° |
| 2026-04-22 17:21 | 27.93225 | -79.83698 | 27404 ft | 463 kts | 112° |
| 2026-04-22 17:21 | 27.90902 | -79.76843 | 28261 ft | 470 kts | 112° |
| 2026-04-22 17:22 | 27.88540 | -79.69887 | 29093 ft | 478 kts | 113° |
| 2026-04-22 17:22 | 27.87342 | -79.66365 | 29496 ft | 482 kts | 113° |
| 2026-04-22 17:22 | 27.84935 | -79.59296 | 30307 ft | 489 kts | 113° |
| 2026-04-22 17:23 | 27.83708 | -79.55697 | 30645 ft | 492 kts | 113° |
| 2026-04-22 17:23 | 27.81229 | -79.48437 | 31318 ft | 498 kts | 113° |
| 2026-04-22 17:23 | 27.79979 | -79.44779 | 31667 ft | 500 kts | 113° |
| 2026-04-22 17:24 | 27.78724 | -79.41111 | 32121 ft | 500 kts | 113° |
| 2026-04-22 17:24 | 27.77473 | -79.37458 | 32583 ft | 499 kts | 113° |
| 2026-04-22 17:24 | 27.76221 | -79.33804 | 33024 ft | 498 kts | 113° |
| 2026-04-22 17:24 | 27.74970 | -79.30160 | 33450 ft | 498 kts | 113° |
| 2026-04-22 17:25 | 27.73720 | -79.26522 | 33866 ft | 498 kts | 113° |
| 2026-04-22 17:25 | 27.72465 | -79.22876 | 34272 ft | 497 kts | 113° |
| 2026-04-22 17:25 | 27.71213 | -79.19241 | 34607 ft | 497 kts | 113° |
| 2026-04-22 17:25 | 27.69959 | -79.15603 | 34907 ft | 498 kts | 113° |
| 2026-04-22 17:26 | 27.68701 | -79.11957 | 35208 ft | 499 kts | 113° |
| 2026-04-22 17:26 | 27.67442 | -79.08311 | 35502 ft | 499 kts | 113° |
| 2026-04-22 17:26 | 27.66179 | -79.04659 | 35790 ft | 499 kts | 113° |
| 2026-04-22 17:26 | 27.64917 | -79.01015 | 36120 ft | 499 kts | 113° |
| 2026-04-22 17:27 | 27.64081 | -78.98600 | 36308 ft | 499 kts | 113° |
| 2026-04-22 17:27 | 27.62815 | -78.94948 | 36561 ft | 500 kts | 113° |
| 2026-04-22 17:27 | 27.61547 | -78.91294 | 36771 ft | 502 kts | 113° |
| 2026-04-22 17:27 | 27.60271 | -78.87621 | 36961 ft | 504 kts | 113° |
| 2026-04-22 17:28 | 27.58990 | -78.83938 | 37205 ft | 505 kts | 113° |
| 2026-04-22 17:28 | 27.57708 | -78.80254 | 37472 ft | 505 kts | 114° |
| 2026-04-22 17:28 | 27.56424 | -78.76566 | 37723 ft | 506 kts | 114° |
| 2026-04-22 17:28 | 27.55137 | -78.72876 | 37969 ft | 506 kts | 114° |
| 2026-04-22 17:29 | 27.53850 | -78.69187 | 38210 ft | 507 kts | 114° |
| 2026-04-22 17:29 | 27.52559 | -78.65493 | 38429 ft | 507 kts | 114° |
| 2026-04-22 17:29 | 27.51265 | -78.61792 | 38656 ft | 508 kts | 114° |
| 2026-04-22 17:29 | 27.49969 | -78.58090 | 38867 ft | 508 kts | 114° |
| 2026-04-22 17:30 | 27.48671 | -78.54387 | 39060 ft | 509 kts | 114° |
| 2026-04-22 17:30 | 27.47370 | -78.50678 | 39229 ft | 509 kts | 114° |
| 2026-04-22 17:30 | 27.44767 | -78.43267 | 39263 ft | 508 kts | 114° |
| 2026-04-22 17:31 | 27.42167 | -78.35879 | 39261 ft | 507 kts | 114° |
| 2026-04-22 17:31 | 27.39583 | -78.28554 | 39259 ft | 507 kts | 114° |
| 2026-04-22 17:32 | 27.36978 | -78.21183 | 39262 ft | 507 kts | 114° |
| 2026-04-22 17:32 | 27.34291 | -78.13862 | 39260 ft | 504 kts | 121° |
| 2026-04-22 17:33 | 27.30691 | -78.07142 | 39259 ft | 501 kts | 127° |
| 2026-04-22 17:33 | 27.26864 | -78.00606 | 39260 ft | 500 kts | 128° |
| 2026-04-22 17:34 | 27.22985 | -77.94108 | 39262 ft | 500 kts | 128° |
| 2026-04-22 17:34 | 27.19117 | -77.87614 | 39259 ft | 500 kts | 128° |
| 2026-04-22 17:35 | 27.15259 | -77.81118 | 39258 ft | 500 kts | 128° |
| 2026-04-22 17:35 | 27.11399 | -77.74616 | 39258 ft | 500 kts | 128° |
| 2026-04-22 17:36 | 27.07540 | -77.68125 | 39253 ft | 500 kts | 128° |
| 2026-04-22 17:36 | 27.03675 | -77.61635 | 39255 ft | 500 kts | 128° |
| 2026-04-22 17:37 | 26.99820 | -77.55149 | 39255 ft | 500 kts | 127° |
| 2026-04-22 17:37 | 26.96016 | -77.48630 | 39255 ft | 499 kts | 127° |
| 2026-04-22 17:38 | 26.92226 | -77.42108 | 39252 ft | 499 kts | 127° |
| 2026-04-22 17:38 | 26.88426 | -77.35589 | 39246 ft | 501 kts | 127° |
| 2026-04-22 17:39 | 26.84601 | -77.29048 | 39248 ft | 503 kts | 127° |
| 2026-04-22 17:40 | 26.78876 | -77.19278 | 39251 ft | 502 kts | 127° |
| 2026-04-22 17:40 | 26.75041 | -77.12744 | 39243 ft | 502 kts | 127° |
| 2026-04-22 17:41 | 26.71206 | -77.06220 | 39242 ft | 502 kts | 127° |
| 2026-04-22 17:41 | 26.67367 | -76.99700 | 39240 ft | 502 kts | 127° |
| 2026-04-22 17:42 | 26.63530 | -76.93193 | 39244 ft | 502 kts | 127° |
| 2026-04-22 17:42 | 26.59680 | -76.86673 | 39240 ft | 502 kts | 128° |
| 2026-04-22 17:43 | 26.55838 | -76.80174 | 39239 ft | 501 kts | 127° |
| 2026-04-22 17:43 | 26.51992 | -76.73679 | 39240 ft | 502 kts | 128° |
| 2026-04-22 17:44 | 26.48135 | -76.67177 | 39235 ft | 503 kts | 128° |
| 2026-04-22 17:44 | 26.44277 | -76.60679 | 39235 ft | 502 kts | 128° |
| 2026-04-22 17:45 | 26.40410 | -76.54176 | 39238 ft | 502 kts | 128° |
| 2026-04-22 17:45 | 26.36543 | -76.47683 | 39239 ft | 502 kts | 128° |
| 2026-04-22 17:46 | 26.32677 | -76.41201 | 39232 ft | 502 kts | 128° |
| 2026-04-22 17:46 | 26.28811 | -76.34727 | 39230 ft | 502 kts | 128° |
| 2026-04-22 17:47 | 26.24944 | -76.28263 | 39231 ft | 501 kts | 128° |
| 2026-04-22 17:47 | 26.21074 | -76.21801 | 39233 ft | 501 kts | 128° |
| 2026-04-22 17:48 | 26.17853 | -76.16430 | 39218 ft | 502 kts | 128° |
| 2026-04-22 17:48 | 26.13305 | -76.08860 | 39224 ft | 504 kts | 128° |
| 2026-04-22 17:49 | 26.09410 | -76.02383 | 39227 ft | 503 kts | 128° |
| 2026-04-22 17:49 | 26.05513 | -75.95911 | 39225 ft | 503 kts | 128° |
| 2026-04-22 17:50 | 26.01641 | -75.89492 | 39224 ft | 503 kts | 128° |
| 2026-04-22 17:50 | 25.97740 | -75.83034 | 39225 ft | 503 kts | 128° |
| 2026-04-22 17:51 | 25.93837 | -75.76581 | 39228 ft | 503 kts | 128° |
| 2026-04-22 17:51 | 25.89934 | -75.70137 | 39222 ft | 502 kts | 128° |
| 2026-04-22 17:52 | 25.86030 | -75.63701 | 39222 ft | 502 kts | 128° |
| 2026-04-22 17:52 | 25.82123 | -75.57268 | 39216 ft | 503 kts | 128° |
| 2026-04-22 17:53 | 25.78208 | -75.50833 | 39222 ft | 503 kts | 128° |
| 2026-04-22 17:53 | 25.74291 | -75.44401 | 39216 ft | 503 kts | 128° |
| 2026-04-22 17:54 | 25.70372 | -75.37976 | 39216 ft | 503 kts | 128° |
| 2026-04-22 17:54 | 25.66457 | -75.31565 | 39216 ft | 502 kts | 128° |
| 2026-04-22 17:55 | 25.63200 | -75.26238 | 39216 ft | 502 kts | 128° |
| 2026-04-22 17:55 | 25.58617 | -75.18754 | 39211 ft | 502 kts | 128° |
| 2026-04-22 17:56 | 25.54692 | -75.12355 | 39211 ft | 502 kts | 128° |
| 2026-04-22 17:56 | 25.50767 | -75.05963 | 39217 ft | 502 kts | 128° |
| 2026-04-22 17:57 | 25.46839 | -74.99575 | 39196 ft | 502 kts | 128° |
| 2026-04-22 17:57 | 25.42904 | -74.93185 | 39208 ft | 503 kts | 128° |
| 2026-04-22 17:58 | 25.38964 | -74.86795 | 39209 ft | 503 kts | 128° |
| 2026-04-22 17:58 | 25.35019 | -74.80406 | 39208 ft | 503 kts | 128° |
| 2026-04-22 17:59 | 25.31074 | -74.74025 | 39203 ft | 503 kts | 128° |
| 2026-04-22 17:59 | 25.27126 | -74.67648 | 39203 ft | 503 kts | 128° |
| 2026-04-22 18:00 | 25.23844 | -74.62354 | 39200 ft | 503 kts | 129° |
| 2026-04-22 18:00 | 25.19225 | -74.54913 | 39203 ft | 503 kts | 129° |
| 2026-04-22 18:01 | 25.15291 | -74.48583 | 39196 ft | 503 kts | 129° |
| 2026-04-22 18:01 | 25.11333 | -74.42224 | 39155 ft | 502 kts | 129° |
| 2026-04-22 18:02 | 25.07371 | -74.35867 | 39195 ft | 503 kts | 129° |
| 2026-04-22 18:02 | 25.03404 | -74.29511 | 39194 ft | 503 kts | 129° |
| 2026-04-22 18:03 | 24.99439 | -74.23166 | 39191 ft | 503 kts | 129° |
| 2026-04-22 18:03 | 24.95470 | -74.16823 | 39192 ft | 503 kts | 129° |
| 2026-04-22 18:04 | 24.91497 | -74.10483 | 39192 ft | 503 kts | 129° |
| 2026-04-22 18:04 | 24.87522 | -74.04147 | 39189 ft | 502 kts | 129° |
| 2026-04-22 18:05 | 24.83547 | -73.97819 | 39190 ft | 502 kts | 129° |
| 2026-04-22 18:05 | 24.79573 | -73.91502 | 39194 ft | 502 kts | 129° |
| 2026-04-22 18:06 | 24.75596 | -73.85188 | 39189 ft | 502 kts | 129° |
| 2026-04-22 18:06 | 24.71616 | -73.78879 | 39186 ft | 503 kts | 129° |
| 2026-04-22 18:07 | 24.68300 | -73.73628 | 39187 ft | 503 kts | 129° |
| 2026-04-22 18:07 | 24.63634 | -73.66247 | 39187 ft | 503 kts | 129° |
| 2026-04-22 18:08 | 24.59643 | -73.59943 | 39178 ft | 503 kts | 129° |
| 2026-04-22 18:08 | 24.55632 | -73.53655 | 39178 ft | 502 kts | 130° |
| 2026-04-22 18:09 | 24.51521 | -73.47456 | 39180 ft | 501 kts | 131° |
| 2026-04-22 18:09 | 24.47411 | -73.41339 | 39178 ft | 501 kts | 131° |
| 2026-04-22 18:10 | 24.43272 | -73.35173 | 39178 ft | 501 kts | 131° |
| 2026-04-22 18:10 | 24.39142 | -73.29007 | 39178 ft | 501 kts | 131° |
| 2026-04-22 18:11 | 24.35012 | -73.22842 | 39175 ft | 502 kts | 131° |
| 2026-04-22 18:11 | 24.30875 | -73.16673 | 39167 ft | 502 kts | 131° |
| 2026-04-22 18:12 | 24.26734 | -73.10508 | 39167 ft | 502 kts | 131° |
| 2026-04-22 18:12 | 24.23290 | -73.05386 | 39167 ft | 502 kts | 131° |
| 2026-04-22 18:13 | 24.18446 | -72.98192 | 39167 ft | 502 kts | 131° |
| 2026-04-22 18:13 | 24.14299 | -72.92041 | 39161 ft | 502 kts | 131° |
| 2026-04-22 18:14 | 24.10151 | -72.85895 | 39162 ft | 502 kts | 131° |
| 2026-04-22 18:14 | 24.06000 | -72.79754 | 39159 ft | 502 kts | 131° |
| 2026-04-22 18:15 | 24.01847 | -72.73617 | 39161 ft | 502 kts | 131° |
| 2026-04-22 18:15 | 23.97692 | -72.67484 | 39156 ft | 502 kts | 131° |
| 2026-04-22 18:16 | 23.94236 | -72.62389 | 39149 ft | 502 kts | 131° |
| 2026-04-22 18:16 | 23.90078 | -72.56266 | 39149 ft | 501 kts | 132° |
| 2026-04-22 18:17 | 23.85919 | -72.50149 | 39146 ft | 501 kts | 132° |
| 2026-04-22 18:17 | 23.81758 | -72.44037 | 39146 ft | 501 kts | 132° |
| 2026-04-22 18:18 | 23.77596 | -72.37929 | 39151 ft | 501 kts | 132° |
| 2026-04-22 18:18 | 23.73431 | -72.31826 | 39149 ft | 501 kts | 132° |
| 2026-04-22 18:19 | 23.69268 | -72.25733 | 39143 ft | 501 kts | 132° |
| 2026-04-22 18:19 | 23.65099 | -72.19638 | 39143 ft | 501 kts | 132° |
| 2026-04-22 18:20 | 23.60933 | -72.13556 | 39141 ft | 501 kts | 132° |
| 2026-04-22 18:20 | 23.56763 | -72.07474 | 39138 ft | 500 kts | 132° |
| 2026-04-22 18:21 | 23.52596 | -72.01405 | 39135 ft | 500 kts | 132° |
| 2026-04-22 18:21 | 23.48425 | -71.95337 | 39135 ft | 500 kts | 132° |
| 2026-04-22 18:22 | 23.44250 | -71.89270 | 39138 ft | 500 kts | 132° |
| 2026-04-22 18:22 | 23.40079 | -71.83216 | 39132 ft | 500 kts | 132° |
| 2026-04-22 18:23 | 23.35911 | -71.77153 | 39132 ft | 500 kts | 131° |
| 2026-04-22 18:23 | 23.31897 | -71.70959 | 39129 ft | 502 kts | 129° |
| 2026-04-22 18:24 | 23.26005 | -71.61617 | 39122 ft | 501 kts | 129° |
| 2026-04-22 18:25 | 23.19998 | -71.52179 | 39126 ft | 514 kts | 130° |
| 2026-04-22 18:25 | 23.15871 | -71.45735 | 39115 ft | 525 kts | 130° |
| 2026-04-22 18:26 | 23.09566 | -71.35886 | 39114 ft | 530 kts | 129° |
| 2026-04-22 18:26 | 23.06891 | -71.31709 | 39112 ft | 529 kts | 129° |
| 2026-04-22 18:27 | 23.02686 | -71.25154 | 39122 ft | 529 kts | 130° |
| 2026-04-22 18:27 | 22.98477 | -71.18605 | 39109 ft | 529 kts | 130° |
| 2026-04-22 18:28 | 22.94266 | -71.12063 | 39111 ft | 529 kts | 130° |
| 2026-04-22 18:28 | 22.90052 | -71.05524 | 39082 ft | 529 kts | 130° |
| 2026-04-22 18:29 | 22.85846 | -70.99004 | 39110 ft | 527 kts | 130° |
| 2026-04-22 18:29 | 22.81649 | -70.92506 | 39108 ft | 526 kts | 130° |
| 2026-04-22 18:30 | 22.75350 | -70.82772 | 39107 ft | 526 kts | 130° |
| 2026-04-22 18:31 | 22.71148 | -70.76289 | 39107 ft | 526 kts | 130° |
| 2026-04-22 18:31 | 22.66945 | -70.69810 | 39099 ft | 525 kts | 130° |
| 2026-04-22 18:32 | 22.62743 | -70.63342 | 39102 ft | 525 kts | 130° |
| 2026-04-22 18:32 | 22.58537 | -70.56876 | 39097 ft | 525 kts | 130° |
| 2026-04-22 18:33 | 22.54327 | -70.50410 | 39100 ft | 525 kts | 130° |
| 2026-04-22 18:33 | 22.50150 | -70.44004 | 39088 ft | 524 kts | 130° |
| 2026-04-22 18:34 | 22.45959 | -70.37582 | 39094 ft | 522 kts | 130° |
| 2026-04-22 18:34 | 22.41774 | -70.31180 | 39092 ft | 522 kts | 130° |
| 2026-04-22 18:35 | 22.37583 | -70.24777 | 39095 ft | 522 kts | 130° |
| 2026-04-22 18:35 | 22.33392 | -70.18379 | 39086 ft | 522 kts | 130° |
| 2026-04-22 18:36 | 22.29199 | -70.11987 | 39086 ft | 521 kts | 130° |
| 2026-04-22 18:36 | 22.25012 | -70.05612 | 39088 ft | 521 kts | 131° |
| 2026-04-22 18:37 | 22.20817 | -69.99232 | 39083 ft | 521 kts | 131° |
| 2026-04-22 18:37 | 22.16620 | -69.92857 | 39082 ft | 521 kts | 131° |
| 2026-04-22 18:38 | 22.12422 | -69.86487 | 39073 ft | 521 kts | 131° |
| 2026-04-22 18:38 | 22.08228 | -69.80129 | 39082 ft | 519 kts | 131° |
| 2026-04-22 18:39 | 22.01944 | -69.70621 | 39081 ft | 519 kts | 131° |
| 2026-04-22 18:39 | 21.97749 | -69.64283 | 39078 ft | 519 kts | 131° |
| 2026-04-22 18:40 | 21.93551 | -69.57948 | 39074 ft | 519 kts | 131° |
| 2026-04-22 18:40 | 21.89371 | -69.51646 | 39074 ft | 519 kts | 131° |
| 2026-04-22 18:41 | 21.85169 | -69.45318 | 39074 ft | 519 kts | 131° |
| 2026-04-22 18:41 | 21.80967 | -69.38999 | 39071 ft | 519 kts | 132° |
| 2026-04-22 18:42 | 21.76766 | -69.32688 | 39071 ft | 519 kts | 132° |
| 2026-04-22 18:42 | 21.72555 | -69.26369 | 39067 ft | 519 kts | 132° |
| 2026-04-22 18:43 | 21.68352 | -69.20070 | 39065 ft | 519 kts | 132° |
| 2026-04-22 18:43 | 21.64144 | -69.13769 | 39068 ft | 519 kts | 132° |
| 2026-04-22 18:44 | 21.59963 | -69.07518 | 39064 ft | 519 kts | 132° |
| 2026-04-22 18:44 | 21.55752 | -69.01229 | 39065 ft | 519 kts | 133° |
| 2026-04-22 18:45 | 21.51536 | -68.94939 | 39064 ft | 519 kts | 133° |
| 2026-04-22 18:45 | 21.47322 | -68.88658 | 39062 ft | 518 kts | 133° |
| 2026-04-22 18:46 | 21.43103 | -68.82377 | 39055 ft | 518 kts | 133° |
| 2026-04-22 18:46 | 21.38890 | -68.76112 | 39057 ft | 517 kts | 133° |
| 2026-04-22 18:47 | 21.34678 | -68.69857 | 39055 ft | 516 kts | 133° |
| 2026-04-22 18:47 | 21.30485 | -68.63634 | 39054 ft | 515 kts | 133° |
| 2026-04-22 18:48 | 21.26288 | -68.57416 | 39049 ft | 514 kts | 133° |
| 2026-04-22 18:48 | 21.22089 | -68.51202 | 39046 ft | 514 kts | 133° |
| 2026-04-22 18:49 | 21.17894 | -68.44999 | 39048 ft | 514 kts | 133° |
| 2026-04-22 18:49 | 21.13692 | -68.38794 | 39048 ft | 514 kts | 133° |
| 2026-04-22 18:50 | 21.09495 | -68.32602 | 39051 ft | 514 kts | 133° |
| 2026-04-22 18:50 | 21.05292 | -68.26407 | 39049 ft | 514 kts | 133° |
| 2026-04-22 18:51 | 21.01087 | -68.20218 | 39047 ft | 514 kts | 133° |
| 2026-04-22 18:51 | 20.96881 | -68.14032 | 39034 ft | 514 kts | 133° |
| 2026-04-22 18:52 | 20.92675 | -68.07854 | 39039 ft | 513 kts | 133° |
| 2026-04-22 18:52 | 20.88468 | -68.01682 | 39040 ft | 513 kts | 133° |
| 2026-04-22 18:53 | 20.84218 | -67.95555 | 39042 ft | 512 kts | 135° |
| 2026-04-22 18:53 | 20.79853 | -67.89551 | 39037 ft | 511 kts | 135° |
| 2026-04-22 18:54 | 20.75466 | -67.83572 | 39037 ft | 511 kts | 135° |
| 2026-04-22 18:54 | 20.71092 | -67.77594 | 39037 ft | 511 kts | 135° |
| 2026-04-22 18:55 | 20.66714 | -67.71595 | 39034 ft | 511 kts | 135° |
| 2026-04-22 18:55 | 20.62344 | -67.65607 | 39032 ft | 511 kts | 135° |
| 2026-04-22 18:56 | 20.57974 | -67.59623 | 39027 ft | 509 kts | 135° |
| 2026-04-22 18:56 | 20.53629 | -67.53680 | 39031 ft | 507 kts | 135° |
| 2026-04-22 18:57 | 20.49292 | -67.47759 | 39028 ft | 506 kts | 135° |
| 2026-04-22 18:57 | 20.44956 | -67.41846 | 39029 ft | 506 kts | 135° |
| 2026-04-22 18:58 | 20.40616 | -67.35932 | 39030 ft | 506 kts | 135° |
| 2026-04-22 18:58 | 20.36291 | -67.30043 | 39025 ft | 506 kts | 135° |
| 2026-04-22 18:59 | 20.31951 | -67.24139 | 39019 ft | 506 kts | 135° |
| 2026-04-22 18:59 | 20.27609 | -67.18238 | 39029 ft | 506 kts | 135° |
| 2026-04-22 19:00 | 20.23267 | -67.12345 | 39019 ft | 506 kts | 135° |
| 2026-04-22 19:00 | 20.19657 | -67.07448 | 39022 ft | 504 kts | 135° |
| 2026-04-22 19:01 | 20.15340 | -67.01595 | 39021 ft | 502 kts | 135° |
| 2026-04-22 19:01 | 20.11031 | -66.95763 | 39020 ft | 501 kts | 135° |
| 2026-04-22 19:02 | 20.06718 | -66.89932 | 39020 ft | 501 kts | 135° |
| 2026-04-22 19:02 | 20.02406 | -66.84107 | 39018 ft | 501 kts | 135° |
| 2026-04-22 19:03 | 19.98396 | -66.77986 | 39019 ft | 509 kts | 126° |
| 2026-04-22 19:03 | 19.94957 | -66.71383 | 39018 ft | 511 kts | 124° |
| 2026-04-22 19:04 | 19.91634 | -66.64694 | 39018 ft | 512 kts | 123° |
| 2026-04-22 19:04 | 19.88323 | -66.58005 | 39018 ft | 512 kts | 123° |
| 2026-04-22 19:05 | 19.84992 | -66.51323 | 39018 ft | 512 kts | 124° |
| 2026-04-22 19:05 | 19.81646 | -66.44642 | 39018 ft | 512 kts | 124° |
| 2026-04-22 19:06 | 19.78293 | -66.37960 | 39018 ft | 512 kts | 124° |
| 2026-04-22 19:07 | 19.73262 | -66.27947 | 39015 ft | 512 kts | 124° |